KVJI/VJI METAR and TAF weather

Enter ICAO airport designator
Station Type Date Time Source
KVJI METAR 2021/09/20 03:55 UTC NOAA

KVJI 200355Z AUTO 09003KT 10SM CLR 21/16 A3020 RMK AO2 T02050160


Station Type Date Time Source
KVJI Decoded METAR 2021/09/20 03:55 UTC NOAA

Abingdon, VA, United States (KVJI) 36-41N 082-02W
Sep 19, 2021 - 11:55 PM EDT / 2021.09.20 0355 UTC
Wind: from the E (090 degrees) at 3 MPH (3 KT):0
Visibility: 10 mile(s):0
Sky conditions: clear
Temperature: 68.9 F (20.5 C)
Dew Point: 60.8 F (16.0 C)
Relative Humidity: 75%
Pressure (altimeter): 30.2 in. Hg (1022 hPa)
ob: KVJI 200355Z AUTO 09003KT 10SM CLR 21/16 A3020 RMK AO2 T02050160
cycle: 4

Station Type Date Time Source
KVJI TAF UTC NOAA

Error!

Example: see airport list